Alhambra, California
Current Conditions -  °F | °C
As of 12:45 PM on Monday 24 Nov 2014 (Local Time) from KEMT Reporting Station
Clear Clear  
Wind Chill: 77°   Ceiling: Unl
Heat Index: 77°   Visibility: 10mi
Dew Point: 16°   Wind: 3mph
Humidity: 10%   Direction: 250°WSW
Pressure: 30.2"   Gusts: NA
Location:  34.09°N, 118.12°W
Report Text: KEMT 242045Z 25003KT 10SM CLR 25/M09 A3020
Loading
Personal Weather Stations






























Interactive Weather Map New forecast layout! Learn more

10-Day Weather Forecast

Advertisements
Track Severe Weather on mobile